createdAt,value
2019-05-26T00:00:28.155Z,100283.63
2019-05-26T00:05:33.893Z,100283.63
2019-05-26T00:10:39.210Z,100277.59
2019-05-26T00:15:45.115Z,100277.59
2019-05-26T00:20:50.338Z,100259.78
2019-05-26T00:25:55.987Z,100279.79
2019-05-26T00:31:01.436Z,100269.84
2019-05-26T00:36:06.957Z,100269.84
2019-05-26T00:41:12.872Z,100280.84
2019-05-26T00:46:18.481Z,100274.67
2019-05-26T00:51:23.889Z,100268.61
2019-05-26T00:56:29.565Z,100260.22
2019-05-26T01:01:34.971Z,100262.77
2019-05-26T01:06:40.628Z,100265.53
2019-05-26T01:11:45.919Z,100270.42
2019-05-26T01:16:51.169Z,100263.00
2019-05-26T01:21:56.549Z,100263.00
2019-05-26T01:27:02.326Z,100276.20
2019-05-26T01:32:07.621Z,100267.16
2019-05-26T01:37:13.274Z,100267.16
2019-05-26T01:42:18.645Z,100286.88
2019-05-26T01:47:24.032Z,100291.11
2019-05-26T01:52:29.311Z,100270.17
2019-05-26T01:57:34.743Z,100298.74
2019-05-26T02:02:40.290Z,100298.74
2019-05-26T02:07:45.915Z,100293.72
2019-05-26T02:12:51.224Z,100293.72
2019-05-26T02:17:56.429Z,100286.48
2019-05-26T02:23:01.738Z,100288.59
2019-05-26T02:28:06.977Z,100296.83
2019-05-26T02:33:12.268Z,100294.37
2019-05-26T02:38:19.008Z,100294.37
2019-05-26T02:43:24.791Z,100295.58
2019-05-26T02:48:30.081Z,100285.44
2019-05-26T02:53:35.386Z,100285.44
2019-05-26T02:58:40.622Z,100277.37
2019-05-26T03:03:46.546Z,100277.37
2019-05-26T03:08:53.842Z,100290.47
2019-05-26T03:14:01.988Z,100298.80
2019-05-26T03:19:07.597Z,100298.80
2019-05-26T03:24:15.846Z,100289.26
2019-05-26T03:29:21.248Z,100296.84
2019-05-26T03:34:26.863Z,100290.01
2019-05-26T03:39:44.727Z,100290.01
2019-05-26T03:44:39.839Z,100295.52
2019-05-26T03:49:45.100Z,100300.52
2019-05-26T03:54:51.326Z,100300.52
2019-05-26T03:59:56.563Z,100294.39
2019-05-26T04:05:02.372Z,100294.20
2019-05-26T04:10:08.778Z,100291.56
2019-05-26T04:15:14.976Z,100311.30
2019-05-26T04:20:20.595Z,100319.14
2019-05-26T04:25:26.140Z,100296.49
2019-05-26T04:30:31.563Z,100311.80
2019-05-26T04:35:37.012Z,100315.06
2019-05-26T04:40:42.559Z,100315.06
2019-05-26T04:45:48.052Z,100322.97
2019-05-26T04:50:53.355Z,100316.00
2019-05-26T04:55:58.600Z,100329.64
2019-05-26T05:01:03.907Z,100329.64
2019-05-26T05:06:09.163Z,100328.59
2019-05-26T05:11:14.491Z,100328.59
2019-05-26T05:16:19.744Z,100331.26
2019-05-26T05:21:25.089Z,100335.75
2019-05-26T05:26:30.721Z,100335.75
2019-05-26T05:31:36.241Z,100338.34
2019-05-26T05:36:41.690Z,100349.88
2019-05-26T05:41:46.940Z,100349.88
2019-05-26T05:46:52.236Z,100353.47
2019-05-26T05:51:57.574Z,100362.13
2019-05-26T05:57:03.054Z,100349.33
2019-05-26T06:02:08.615Z,100334.20
2019-05-26T06:07:14.200Z,100349.65
2019-05-26T06:12:19.677Z,100349.65
2019-05-26T06:17:24.914Z,100353.22
2019-05-26T06:22:30.589Z,100346.21
2019-05-26T06:27:36.246Z,100351.20
2019-05-26T06:32:41.676Z,100354.01
2019-05-26T06:37:46.930Z,100347.77
2019-05-26T06:42:52.235Z,100347.77
2019-05-26T06:47:57.873Z,100346.03
2019-05-26T06:53:04.329Z,100357.89
2019-05-26T06:58:09.646Z,100357.08
2019-05-26T07:03:15.196Z,100357.45
2019-05-26T07:08:20.600Z,100358.08
2019-05-26T07:13:26.946Z,100351.17
2019-05-26T07:18:32.256Z,100356.60
2019-05-26T07:23:37.526Z,100356.60
2019-05-26T07:28:43.251Z,100352.80
2019-05-26T07:33:48.737Z,100342.67
2019-05-26T07:38:54.158Z,100342.67
2019-05-26T07:43:59.426Z,100339.91
2019-05-26T07:49:05.231Z,100342.83
2019-05-26T07:54:24.553Z,100341.58
2019-05-26T07:59:17.691Z,100344.52
2019-05-26T08:04:23.049Z,100344.52
2019-05-26T08:09:28.749Z,100331.92
2019-05-26T08:14:34.036Z,100331.92
2019-05-26T08:19:39.257Z,100347.41
2019-05-26T08:24:45.822Z,100349.41
2019-05-26T08:29:51.273Z,100349.41
2019-05-26T08:34:56.538Z,100350.91
2019-05-26T08:40:19.998Z,100344.23
2019-05-26T08:45:25.595Z,100347.93
2019-05-26T08:50:34.160Z,100347.93
2019-05-26T08:55:38.043Z,100336.01
2019-05-26T09:00:43.496Z,100328.36
2019-05-26T09:05:49.267Z,100338.05
2019-05-26T09:10:54.569Z,100328.96
2019-05-26T09:15:59.804Z,100331.50
2019-05-26T09:21:05.506Z,100331.50
2019-05-26T09:26:10.822Z,100330.29
2019-05-26T09:31:16.122Z,100320.01
2019-05-26T09:36:21.763Z,100320.01
2019-05-26T09:41:27.605Z,100320.15
2019-05-26T09:46:32.890Z,100290.56
2019-05-26T09:51:38.130Z,100314.41
2019-05-26T09:56:43.398Z,100312.66
2019-05-26T10:01:48.719Z,100303.83
2019-05-26T10:06:54.134Z,100298.63
2019-05-26T10:11:59.587Z,100290.64
2019-05-26T10:17:05.047Z,100290.64
2019-05-26T10:22:10.327Z,100289.52
2019-05-26T10:27:15.539Z,100295.14
2019-05-26T10:32:20.972Z,100295.14
2019-05-26T10:37:26.459Z,100285.08
2019-05-26T10:42:31.836Z,100270.39
2019-05-26T10:47:37.659Z,100269.62
2019-05-26T10:52:43.517Z,100269.62
2019-05-26T10:57:48.826Z,100272.70
2019-05-26T11:02:54.359Z,100256.52
2019-05-26T11:08:00.241Z,100251.00
2019-05-26T11:13:05.902Z,100251.00
2019-05-26T11:18:11.359Z,100245.09
2019-05-26T11:23:16.590Z,100249.26
2019-05-26T11:28:21.860Z,100240.86
2019-05-26T11:33:27.095Z,100240.86
2019-05-26T11:38:33.833Z,100220.55
2019-05-26T11:43:39.628Z,100217.13
2019-05-26T11:48:45.987Z,100216.20
2019-05-26T11:53:51.532Z,100207.84
2019-05-26T11:58:56.837Z,100207.84
2019-05-26T12:04:02.372Z,100205.58
2019-05-26T12:09:09.400Z,100205.58
2019-05-26T12:14:14.758Z,100188.48
2019-05-26T12:19:20.161Z,100182.30
2019-05-26T12:24:25.501Z,100190.23
2019-05-26T12:29:31.197Z,100186.25
2019-05-26T12:34:36.588Z,100186.25
2019-05-26T12:39:42.358Z,100163.06
2019-05-26T12:44:49.907Z,100163.06
2019-05-26T12:49:54.642Z,100144.61
2019-05-26T12:55:00.128Z,100143.30
2019-05-26T13:00:09.919Z,100143.30
2019-05-26T13:05:16.606Z,100139.97
2019-05-26T13:10:22.363Z,100124.00
2019-05-26T13:15:27.801Z,100126.80
2019-05-26T13:20:33.431Z,100113.38
2019-05-26T13:25:38.771Z,100113.38
2019-05-26T13:30:44.100Z,100114.60
2019-05-26T13:35:49.815Z,100114.60
2019-05-26T13:40:55.285Z,100108.17
2019-05-26T13:46:00.705Z,100100.34
2019-05-26T13:51:05.997Z,100102.00
2019-05-26T13:56:11.531Z,100102.00
2019-05-26T14:01:18.171Z,100100.88
2019-05-26T14:06:23.542Z,100091.11
2019-05-26T14:11:28.776Z,100102.00
2019-05-26T14:16:35.797Z,100090.86
2019-05-26T14:21:41.120Z,100097.00
2019-05-26T14:26:46.517Z,100090.82
2019-05-26T14:31:52.989Z,100081.09
2019-05-26T14:36:58.390Z,100075.77
2019-05-26T14:42:03.688Z,100075.77
2019-05-26T14:47:09.011Z,100064.33
2019-05-26T14:52:14.291Z,100064.33
2019-05-26T14:57:20.086Z,100058.20
2019-05-26T15:02:25.487Z,100051.48
2019-05-26T15:07:31.061Z,100049.56
2019-05-26T15:12:36.378Z,100049.27
2019-05-26T15:17:41.834Z,100049.27
2019-05-26T15:22:47.075Z,100028.61
2019-05-26T15:27:52.660Z,100035.30
2019-05-26T15:32:58.444Z,100035.30
2019-05-26T15:38:04.500Z,100030.72
2019-05-26T15:43:10.070Z,100018.67
2019-05-26T15:48:15.387Z,100017.85
2019-05-26T15:53:21.943Z,100014.76
2019-05-26T15:58:27.458Z,100014.76
2019-05-26T16:03:33.145Z,100008.41
2019-05-26T16:08:38.868Z,100007.80
2019-05-26T16:13:44.782Z,99999.83
2019-05-26T16:18:50.339Z,99994.53
2019-05-26T16:23:56.200Z,99990.62
2019-05-26T16:29:01.507Z,100001.55
2019-05-26T16:34:08.424Z,99992.91
2019-05-26T16:39:13.866Z,99992.91
2019-05-26T16:44:20.083Z,99989.55
2019-05-26T16:49:25.466Z,99990.96
2019-05-26T16:54:31.096Z,99986.18
2019-05-26T16:59:36.864Z,99986.18
2019-05-26T17:04:42.355Z,99972.26
2019-05-26T17:09:47.845Z,99970.59
2019-05-26T17:14:53.976Z,99970.59
2019-05-26T17:19:59.343Z,99962.20
2019-05-26T17:25:06.582Z,99950.21
2019-05-26T17:30:12.529Z,99950.77
2019-05-26T17:35:18.245Z,99950.77
2019-05-26T17:40:24.405Z,99946.88
2019-05-26T17:45:29.641Z,99954.69
2019-05-26T17:50:34.993Z,99945.48
2019-05-26T17:55:41.412Z,99944.92
2019-05-26T18:00:47.149Z,99939.05
2019-05-26T18:05:52.714Z,99933.72
2019-05-26T18:10:58.063Z,99935.13
2019-05-26T18:16:03.427Z,99931.19
2019-05-26T18:21:09.093Z,99931.19
2019-05-26T18:26:14.760Z,99924.51
2019-05-26T18:31:20.151Z,99921.72
2019-05-26T18:36:25.675Z,99921.72
2019-05-26T18:41:31.094Z,99918.05
2019-05-26T18:46:37.386Z,99918.31
2019-05-26T18:51:42.713Z,99918.31
2019-05-26T18:56:48.083Z,99912.44
2019-05-26T19:01:53.655Z,99912.44
2019-05-26T19:06:58.991Z,99905.95
2019-05-26T19:12:04.723Z,99912.03
2019-05-26T19:17:10.679Z,99912.03
2019-05-26T19:22:16.367Z,99905.85
2019-05-26T19:27:21.572Z,99917.48
2019-05-26T19:32:26.970Z,99921.95
2019-05-26T19:37:33.223Z,99921.95
2019-05-26T19:42:38.898Z,99923.77
2019-05-26T19:47:44.456Z,99925.95
2019-05-26T19:52:50.317Z,99921.14
2019-05-26T19:57:55.939Z,99921.89
2019-05-26T20:03:01.325Z,99921.89
2019-05-26T20:08:07.920Z,99925.16
2019-05-26T20:13:13.221Z,99919.34
2019-05-26T20:18:18.673Z,99928.98
2019-05-26T20:23:24.134Z,99925.33
2019-05-26T20:28:29.781Z,99925.33
2019-05-26T20:33:35.190Z,99923.48
2019-05-26T20:38:40.963Z,99923.48
2019-05-26T20:43:46.744Z,99920.61
2019-05-26T20:48:52.119Z,99927.45
2019-05-26T20:53:57.850Z,99927.45
2019-05-26T20:59:03.282Z,99923.75
2019-05-26T21:04:09.764Z,99921.48
2019-05-26T21:09:15.490Z,99921.48
2019-05-26T21:14:21.235Z,99911.23
2019-05-26T21:19:26.618Z,99913.50
2019-05-26T21:24:32.301Z,99906.81
2019-05-26T21:29:37.837Z,99899.62
2019-05-26T21:34:43.426Z,99899.62
2019-05-26T21:39:49.107Z,99894.11
2019-05-26T21:44:54.466Z,99878.71
2019-05-26T21:49:59.814Z,99905.64
2019-05-26T21:55:07.230Z,99905.64
2019-05-26T22:00:18.647Z,99900.03
2019-05-26T22:05:25.751Z,99895.22
2019-05-26T22:10:31.458Z,99887.15
2019-05-26T22:15:37.935Z,99885.97
2019-05-26T22:20:43.563Z,99885.97
2019-05-26T22:25:49.327Z,99890.80
2019-05-26T22:30:54.786Z,99890.80
2019-05-26T22:36:00.273Z,99880.95
2019-05-26T22:41:05.874Z,99880.95
2019-05-26T22:46:11.390Z,99875.00
2019-05-26T22:51:18.305Z,99874.98
2019-05-26T22:56:23.903Z,99874.98
2019-05-26T23:01:29.524Z,99866.28
2019-05-26T23:06:34.834Z,99853.96
2019-05-26T23:11:40.141Z,99853.96
2019-05-26T23:16:45.842Z,99851.42
2019-05-26T23:21:51.451Z,99861.11
2019-05-26T23:26:56.668Z,99850.40
2019-05-26T23:32:02.184Z,99850.40
2019-05-26T23:37:07.531Z,99840.30
2019-05-26T23:42:12.855Z,99844.45
2019-05-26T23:47:18.159Z,99844.45
2019-05-26T23:52:23.735Z,99840.25
2019-05-26T23:57:29.004Z,99839.02
